sensor_id;sensor_type;location;lat;lon;timestamp;P1;durP1;ratioP1;P2;durP2;ratioP2
15931;SDS011;8065;49.520;11.284;2023-05-10T00:01:05;4.50;;;3.60;;
15931;SDS011;8065;49.520;11.284;2023-05-10T00:03:32;3.33;;;3.00;;
15931;SDS011;8065;49.520;11.284;2023-05-10T00:05:59;4.03;;;3.67;;
15931;SDS011;8065;49.520;11.284;2023-05-10T00:08:25;4.20;;;3.40;;
15931;SDS011;8065;49.520;11.284;2023-05-10T00:10:53;3.40;;;3.10;;
15931;SDS011;8065;49.520;11.284;2023-05-10T00:13:20;3.70;;;3.40;;
15931;SDS011;8065;49.520;11.284;2023-05-10T00:15:48;3.47;;;3.17;;
15931;SDS011;8065;49.520;11.284;2023-05-10T00:18:15;3.97;;;2.90;;
15931;SDS011;8065;49.520;11.284;2023-05-10T00:20:42;3.80;;;3.07;;
15931;SDS011;8065;49.520;11.284;2023-05-10T00:23:10;3.10;;;2.90;;
15931;SDS011;8065;49.520;11.284;2023-05-10T00:25:37;3.70;;;3.40;;
15931;SDS011;8065;49.520;11.284;2023-05-10T00:28:05;3.70;;;3.17;;
15931;SDS011;8065;49.520;11.284;2023-05-10T00:30:31;3.77;;;3.30;;
15931;SDS011;8065;49.520;11.284;2023-05-10T00:32:58;6.83;;;3.13;;
15931;SDS011;8065;49.520;11.284;2023-05-10T00:35:25;3.93;;;3.10;;
15931;SDS011;8065;49.520;11.284;2023-05-10T00:37:52;3.57;;;3.27;;
15931;SDS011;8065;49.520;11.284;2023-05-10T00:40:18;3.57;;;3.27;;
15931;SDS011;8065;49.520;11.284;2023-05-10T00:42:45;3.60;;;3.30;;
15931;SDS011;8065;49.520;11.284;2023-05-10T00:45:13;3.93;;;3.53;;
15931;SDS011;8065;49.520;11.284;2023-05-10T00:47:40;4.70;;;3.67;;
15931;SDS011;8065;49.520;11.284;2023-05-10T00:50:07;3.97;;;3.67;;
15931;SDS011;8065;49.520;11.284;2023-05-10T00:52:34;4.73;;;3.43;;
15931;SDS011;8065;49.520;11.284;2023-05-10T00:55:01;5.33;;;3.50;;
15931;SDS011;8065;49.520;11.284;2023-05-10T00:57:29;5.67;;;4.17;;
15931;SDS011;8065;49.520;11.284;2023-05-10T00:59:55;5.97;;;3.57;;
15931;SDS011;8065;49.520;11.284;2023-05-10T01:02:25;7.83;;;3.60;;
15931;SDS011;8065;49.520;11.284;2023-05-10T01:04:52;7.43;;;4.03;;
15931;SDS011;8065;49.520;11.284;2023-05-10T01:07:19;7.43;;;3.73;;
15931;SDS011;8065;49.520;11.284;2023-05-10T01:09:45;4.10;;;3.50;;
15931;SDS011;8065;49.520;11.284;2023-05-10T01:12:12;3.67;;;3.37;;
15931;SDS011;8065;49.520;11.284;2023-05-10T01:14:39;3.67;;;3.37;;
15931;SDS011;8065;49.520;11.284;2023-05-10T01:17:06;3.93;;;3.60;;
15931;SDS011;8065;49.520;11.284;2023-05-10T01:19:35;3.73;;;3.47;;
15931;SDS011;8065;49.520;11.284;2023-05-10T01:22:06;4.90;;;3.60;;
15931;SDS011;8065;49.520;11.284;2023-05-10T01:24:51;3.90;;;3.53;;
15931;SDS011;8065;49.520;11.284;2023-05-10T01:33:36;3.87;;;3.57;;
15931;SDS011;8065;49.520;11.284;2023-05-10T01:36:08;5.17;;;3.97;;
15931;SDS011;8065;49.520;11.284;2023-05-10T01:38:41;4.43;;;3.80;;
15931;SDS011;8065;49.520;11.284;2023-05-10T01:41:16;3.93;;;3.53;;
15931;SDS011;8065;49.520;11.284;2023-05-10T01:43:48;4.93;;;3.80;;
15931;SDS011;8065;49.520;11.284;2023-05-10T01:46:24;6.17;;;4.50;;
15931;SDS011;8065;49.520;11.284;2023-05-10T01:48:56;4.73;;;4.37;;
15931;SDS011;8065;49.520;11.284;2023-05-10T01:51:25;5.77;;;5.23;;
15931;SDS011;8065;49.520;11.284;2023-05-10T01:53:58;5.77;;;4.87;;
15931;SDS011;8065;49.520;11.284;2023-05-10T01:56:28;7.30;;;5.27;;
15931;SDS011;8065;49.520;11.284;2023-05-10T01:58:56;5.87;;;5.27;;
15931;SDS011;8065;49.520;11.284;2023-05-10T02:01:26;8.80;;;5.93;;
15931;SDS011;8065;49.520;11.284;2023-05-10T02:03:53;6.97;;;5.80;;
15931;SDS011;8065;49.520;11.284;2023-05-10T02:06:24;6.17;;;5.50;;
15931;SDS011;8065;49.520;11.284;2023-05-10T02:08:53;6.40;;;5.80;;
15931;SDS011;8065;49.520;11.284;2023-05-10T02:11:21;7.20;;;5.63;;
15931;SDS011;8065;49.520;11.284;2023-05-10T02:13:49;7.37;;;6.17;;
15931;SDS011;8065;49.520;11.284;2023-05-10T02:16:17;5.33;;;4.90;;
15931;SDS011;8065;49.520;11.284;2023-05-10T02:18:47;5.23;;;4.83;;
15931;SDS011;8065;49.520;11.284;2023-05-10T02:21:16;5.40;;;4.90;;
15931;SDS011;8065;49.520;11.284;2023-05-10T02:23:45;6.10;;;5.47;;
15931;SDS011;8065;49.520;11.284;2023-05-10T02:26:13;6.83;;;6.23;;
15931;SDS011;8065;49.520;11.284;2023-05-10T02:28:42;6.73;;;6.10;;
15931;SDS011;8065;49.520;11.284;2023-05-10T02:31:09;7.83;;;6.83;;
15931;SDS011;8065;49.520;11.284;2023-05-10T02:33:37;7.77;;;6.03;;
15931;SDS011;8065;49.520;11.284;2023-05-10T02:36:06;7.60;;;5.83;;
15931;SDS011;8065;49.520;11.284;2023-05-10T02:38:36;6.30;;;5.70;;
15931;SDS011;8065;49.520;11.284;2023-05-10T02:41:03;6.73;;;6.10;;
15931;SDS011;8065;49.520;11.284;2023-05-10T02:43:31;6.57;;;5.97;;
15931;SDS011;8065;49.520;11.284;2023-05-10T02:45:59;6.67;;;6.17;;
15931;SDS011;8065;49.520;11.284;2023-05-10T02:48:26;7.17;;;6.47;;
15931;SDS011;8065;49.520;11.284;2023-05-10T02:50:52;6.37;;;5.53;;
15931;SDS011;8065;49.520;11.284;2023-05-10T02:53:23;6.73;;;6.20;;
15931;SDS011;8065;49.520;11.284;2023-05-10T02:55:58;6.63;;;6.03;;
15931;SDS011;8065;49.520;11.284;2023-05-10T02:58:28;7.77;;;6.97;;
15931;SDS011;8065;49.520;11.284;2023-05-10T03:00:55;7.03;;;6.33;;
15931;SDS011;8065;49.520;11.284;2023-05-10T03:03:21;7.03;;;6.40;;
15931;SDS011;8065;49.520;11.284;2023-05-10T03:05:48;7.43;;;6.73;;
15931;SDS011;8065;49.520;11.284;2023-05-10T03:08:15;8.60;;;7.70;;
15931;SDS011;8065;49.520;11.284;2023-05-10T03:10:44;8.60;;;7.67;;
15931;SDS011;8065;49.520;11.284;2023-05-10T03:13:20;7.50;;;6.80;;
15931;SDS011;8065;49.520;11.284;2023-05-10T03:15:56;7.63;;;6.93;;
15931;SDS011;8065;49.520;11.284;2023-05-10T03:18:28;7.93;;;7.23;;
15931;SDS011;8065;49.520;11.284;2023-05-10T03:21:02;8.13;;;7.20;;
15931;SDS011;8065;49.520;11.284;2023-05-10T03:23:33;8.13;;;7.33;;
15931;SDS011;8065;49.520;11.284;2023-05-10T03:26:01;7.43;;;6.73;;
15931;SDS011;8065;49.520;11.284;2023-05-10T03:28:32;7.90;;;7.10;;
15931;SDS011;8065;49.520;11.284;2023-05-10T03:31:00;8.07;;;7.33;;
15931;SDS011;8065;49.520;11.284;2023-05-10T03:33:30;7.57;;;6.87;;
15931;SDS011;8065;49.520;11.284;2023-05-10T03:35:56;8.13;;;7.43;;
15931;SDS011;8065;49.520;11.284;2023-05-10T03:38:23;10.27;;;7.87;;
15931;SDS011;8065;49.520;11.284;2023-05-10T03:40:50;7.57;;;6.87;;
15931;SDS011;8065;49.520;11.284;2023-05-10T03:43:16;8.10;;;7.03;;
15931;SDS011;8065;49.520;11.284;2023-05-10T03:45:44;6.57;;;5.97;;
15931;SDS011;8065;49.520;11.284;2023-05-10T03:48:10;7.13;;;6.47;;
15931;SDS011;8065;49.520;11.284;2023-05-10T03:50:38;6.67;;;5.83;;
15931;SDS011;8065;49.520;11.284;2023-05-10T03:53:05;6.60;;;6.00;;
15931;SDS011;8065;49.520;11.284;2023-05-10T03:55:31;6.37;;;5.87;;
15931;SDS011;8065;49.520;11.284;2023-05-10T03:58:01;5.97;;;5.47;;
15931;SDS011;8065;49.520;11.284;2023-05-10T04:00:27;5.63;;;5.13;;
15931;SDS011;8065;49.520;11.284;2023-05-10T04:02:56;7.70;;;6.13;;
15931;SDS011;8065;49.520;11.284;2023-05-10T04:05:23;5.60;;;5.10;;
15931;SDS011;8065;49.520;11.284;2023-05-10T04:07:49;6.03;;;5.23;;
15931;SDS011;8065;49.520;11.284;2023-05-10T04:10:16;13.47;;;12.27;;
15931;SDS011;8065;49.520;11.284;2023-05-10T04:12:42;8.20;;;7.50;;
15931;SDS011;8065;49.520;11.284;2023-05-10T04:15:09;6.83;;;6.23;;
15931;SDS011;8065;49.520;11.284;2023-05-10T04:17:36;5.20;;;4.70;;
15931;SDS011;8065;49.520;11.284;2023-05-10T04:20:04;3.63;;;3.33;;
15931;SDS011;8065;49.520;11.284;2023-05-10T04:22:32;3.90;;;2.90;;
15931;SDS011;8065;49.520;11.284;2023-05-10T04:24:58;2.37;;;2.27;;
15931;SDS011;8065;49.520;11.284;2023-05-10T04:27:25;2.10;;;1.90;;
15931;SDS011;8065;49.520;11.284;2023-05-10T04:29:52;1.87;;;1.77;;
15931;SDS011;8065;49.520;11.284;2023-05-10T04:32:18;1.50;;;1.40;;
15931;SDS011;8065;49.520;11.284;2023-05-10T04:34:45;1.30;;;1.30;;
15931;SDS011;8065;49.520;11.284;2023-05-10T04:37:13;2.40;;;1.40;;
15931;SDS011;8065;49.520;11.284;2023-05-10T04:39:39;2.00;;;1.30;;
15931;SDS011;8065;49.520;11.284;2023-05-10T04:42:06;1.00;;;1.00;;
15931;SDS011;8065;49.520;11.284;2023-05-10T04:44:33;1.30;;;1.20;;
15931;SDS011;8065;49.520;11.284;2023-05-10T04:46:59;0.87;;;0.87;;
15931;SDS011;8065;49.520;11.284;2023-05-10T04:49:27;0.77;;;0.70;;
15931;SDS011;8065;49.520;11.284;2023-05-10T04:51:53;0.67;;;0.67;;
15931;SDS011;8065;49.520;11.284;2023-05-10T04:54:21;1.73;;;0.77;;
15931;SDS011;8065;49.520;11.284;2023-05-10T04:56:48;1.23;;;0.50;;
15931;SDS011;8065;49.520;11.284;2023-05-10T04:59:14;1.27;;;0.70;;
15931;SDS011;8065;49.520;11.284;2023-05-10T05:01:41;0.97;;;0.70;;
15931;SDS011;8065;49.520;11.284;2023-05-10T05:04:07;0.60;;;0.60;;
15931;SDS011;8065;49.520;11.284;2023-05-10T05:06:34;0.60;;;0.60;;
15931;SDS011;8065;49.520;11.284;2023-05-10T05:09:01;0.70;;;0.70;;
15931;SDS011;8065;49.520;11.284;2023-05-10T05:11:29;0.60;;;0.60;;
15931;SDS011;8065;49.520;11.284;2023-05-10T05:13:55;0.87;;;0.80;;
15931;SDS011;8065;49.520;11.284;2023-05-10T05:16:23;1.30;;;1.00;;
15931;SDS011;8065;49.520;11.284;2023-05-10T05:18:50;2.33;;;0.80;;
15931;SDS011;8065;49.520;11.284;2023-05-10T05:21:17;0.60;;;0.60;;
15931;SDS011;8065;49.520;11.284;2023-05-10T05:23:45;0.50;;;0.50;;
15931;SDS011;8065;49.520;11.284;2023-05-10T05:26:12;0.60;;;0.60;;
15931;SDS011;8065;49.520;11.284;2023-05-10T05:28:41;1.00;;;0.90;;
15931;SDS011;8065;49.520;11.284;2023-05-10T05:31:07;0.70;;;0.70;;
15931;SDS011;8065;49.520;11.284;2023-05-10T05:33:34;0.73;;;0.73;;
15931;SDS011;8065;49.520;11.284;2023-05-10T05:36:01;1.00;;;0.90;;
15931;SDS011;8065;49.520;11.284;2023-05-10T05:38:29;1.30;;;0.77;;
15931;SDS011;8065;49.520;11.284;2023-05-10T05:40:55;0.63;;;0.63;;
15931;SDS011;8065;49.520;11.284;2023-05-10T05:43:22;2.17;;;0.80;;
15931;SDS011;8065;49.520;11.284;2023-05-10T05:45:51;1.60;;;0.80;;
15931;SDS011;8065;49.520;11.284;2023-05-10T05:48:18;0.60;;;0.60;;
15931;SDS011;8065;49.520;11.284;2023-05-10T05:50:45;0.67;;;0.67;;
15931;SDS011;8065;49.520;11.284;2023-05-10T05:53:11;1.37;;;0.70;;
15931;SDS011;8065;49.520;11.284;2023-05-10T05:55:38;0.70;;;0.70;;
15931;SDS011;8065;49.520;11.284;2023-05-10T05:58:04;0.80;;;0.80;;
15931;SDS011;8065;49.520;11.284;2023-05-10T06:00:31;0.70;;;0.70;;
15931;SDS011;8065;49.520;11.284;2023-05-10T06:02:59;0.70;;;0.70;;
15931;SDS011;8065;49.520;11.284;2023-05-10T06:05:26;0.70;;;0.70;;
15931;SDS011;8065;49.520;11.284;2023-05-10T06:07:52;0.70;;;0.60;;
15931;SDS011;8065;49.520;11.284;2023-05-10T06:10:19;1.43;;;0.83;;
15931;SDS011;8065;49.520;11.284;2023-05-10T06:12:45;0.73;;;0.73;;
15931;SDS011;8065;49.520;11.284;2023-05-10T06:15:12;0.80;;;0.80;;
15931;SDS011;8065;49.520;11.284;2023-05-10T06:17:38;0.90;;;0.90;;
15931;SDS011;8065;49.520;11.284;2023-05-10T06:20:07;1.80;;;0.90;;
15931;SDS011;8065;49.520;11.284;2023-05-10T06:22:34;0.60;;;0.60;;
15931;SDS011;8065;49.520;11.284;2023-05-10T06:25:01;1.20;;;0.70;;
15931;SDS011;8065;49.520;11.284;2023-05-10T06:27:28;1.13;;;0.90;;
15931;SDS011;8065;49.520;11.284;2023-05-10T06:29:54;0.53;;;0.53;;
15931;SDS011;8065;49.520;11.284;2023-05-10T06:32:21;0.80;;;0.80;;
15931;SDS011;8065;49.520;11.284;2023-05-10T06:34:47;0.80;;;0.80;;
15931;SDS011;8065;49.520;11.284;2023-05-10T06:37:15;0.87;;;0.87;;
15931;SDS011;8065;49.520;11.284;2023-05-10T06:39:41;1.00;;;1.00;;
15931;SDS011;8065;49.520;11.284;2023-05-10T06:42:08;1.13;;;0.70;;
15931;SDS011;8065;49.520;11.284;2023-05-10T06:44:35;0.60;;;0.60;;
15931;SDS011;8065;49.520;11.284;2023-05-10T06:47:01;0.77;;;0.77;;
15931;SDS011;8065;49.520;11.284;2023-05-10T06:49:28;0.60;;;0.60;;
15931;SDS011;8065;49.520;11.284;2023-05-10T06:51:55;1.43;;;0.90;;
15931;SDS011;8065;49.520;11.284;2023-05-10T06:54:23;0.93;;;0.93;;
15931;SDS011;8065;49.520;11.284;2023-05-10T06:56:49;1.00;;;1.00;;
15931;SDS011;8065;49.520;11.284;2023-05-10T06:59:16;1.10;;;1.10;;
15931;SDS011;8065;49.520;11.284;2023-05-10T07:01:44;0.97;;;0.97;;
15931;SDS011;8065;49.520;11.284;2023-05-10T07:04:10;0.90;;;0.90;;
15931;SDS011;8065;49.520;11.284;2023-05-10T07:06:37;2.23;;;1.00;;
15931;SDS011;8065;49.520;11.284;2023-05-10T07:09:04;0.90;;;0.90;;
15931;SDS011;8065;49.520;11.284;2023-05-10T07:11:32;1.13;;;1.13;;
15931;SDS011;8065;49.520;11.284;2023-05-10T07:13:58;1.33;;;1.00;;
15931;SDS011;8065;49.520;11.284;2023-05-10T07:16:25;1.07;;;1.00;;
15931;SDS011;8065;49.520;11.284;2023-05-10T07:18:52;1.17;;;0.90;;
15931;SDS011;8065;49.520;11.284;2023-05-10T07:21:18;0.93;;;0.90;;
15931;SDS011;8065;49.520;11.284;2023-05-10T07:23:45;1.10;;;1.00;;
15931;SDS011;8065;49.520;11.284;2023-05-10T07:26:11;0.83;;;0.83;;
15931;SDS011;8065;49.520;11.284;2023-05-10T07:28:41;1.20;;;1.00;;
15931;SDS011;8065;49.520;11.284;2023-05-10T07:31:07;1.53;;;0.87;;
15931;SDS011;8065;49.520;11.284;2023-05-10T07:33:34;0.60;;;0.60;;
15931;SDS011;8065;49.520;11.284;2023-05-10T07:36:01;1.00;;;1.00;;
15931;SDS011;8065;49.520;11.284;2023-05-10T07:38:27;0.80;;;0.80;;
15931;SDS011;8065;49.520;11.284;2023-05-10T07:40:54;0.70;;;0.70;;
15931;SDS011;8065;49.520;11.284;2023-05-10T07:43:20;0.73;;;0.73;;
15931;SDS011;8065;49.520;11.284;2023-05-10T07:45:48;0.93;;;0.90;;
15931;SDS011;8065;49.520;11.284;2023-05-10T07:48:14;0.70;;;0.70;;
15931;SDS011;8065;49.520;11.284;2023-05-10T07:50:41;0.70;;;0.70;;
15931;SDS011;8065;49.520;11.284;2023-05-10T07:53:07;1.17;;;0.67;;
15931;SDS011;8065;49.520;11.284;2023-05-10T07:55:34;2.83;;;0.70;;
15931;SDS011;8065;49.520;11.284;2023-05-10T07:58:00;1.33;;;0.80;;
15931;SDS011;8065;49.520;11.284;2023-05-10T08:00:28;0.60;;;0.60;;
15931;SDS011;8065;49.520;11.284;2023-05-10T08:02:56;0.80;;;0.80;;
15931;SDS011;8065;49.520;11.284;2023-05-10T08:05:23;0.83;;;0.60;;
15931;SDS011;8065;49.520;11.284;2023-05-10T08:07:49;0.70;;;0.70;;
15931;SDS011;8065;49.520;11.284;2023-05-10T08:10:16;1.13;;;0.70;;
15931;SDS011;8065;49.520;11.284;2023-05-10T08:12:42;0.70;;;0.70;;
15931;SDS011;8065;49.520;11.284;2023-05-10T08:15:09;0.57;;;0.57;;
15931;SDS011;8065;49.520;11.284;2023-05-10T08:17:36;0.50;;;0.50;;
15931;SDS011;8065;49.520;11.284;2023-05-10T08:20:05;1.03;;;0.70;;
15931;SDS011;8065;49.520;11.284;2023-05-10T08:22:32;1.80;;;0.80;;
15931;SDS011;8065;49.520;11.284;2023-05-10T08:24:59;0.60;;;0.60;;
15931;SDS011;8065;49.520;11.284;2023-05-10T08:27:25;2.10;;;0.60;;
15931;SDS011;8065;49.520;11.284;2023-05-10T08:29:52;1.07;;;0.63;;
15931;SDS011;8065;49.520;11.284;2023-05-10T08:32:18;0.80;;;0.60;;
15931;SDS011;8065;49.520;11.284;2023-05-10T08:34:45;0.67;;;0.60;;
15931;SDS011;8065;49.520;11.284;2023-05-10T08:37:13;0.60;;;0.60;;
15931;SDS011;8065;49.520;11.284;2023-05-10T08:39:40;0.80;;;0.60;;
15931;SDS011;8065;49.520;11.284;2023-05-10T08:42:06;1.40;;;0.70;;
15931;SDS011;8065;49.520;11.284;2023-05-10T08:44:35;0.70;;;0.70;;
15931;SDS011;8065;49.520;11.284;2023-05-10T08:47:04;0.70;;;0.70;;
15931;SDS011;8065;49.520;11.284;2023-05-10T08:49:32;0.80;;;0.80;;
15931;SDS011;8065;49.520;11.284;2023-05-10T08:51:59;0.60;;;0.60;;
15931;SDS011;8065;49.520;11.284;2023-05-10T08:54:31;0.70;;;0.70;;
15931;SDS011;8065;49.520;11.284;2023-05-10T08:56:58;0.60;;;0.60;;
15931;SDS011;8065;49.520;11.284;2023-05-10T08:59:24;0.93;;;0.60;;
15931;SDS011;8065;49.520;11.284;2023-05-10T09:01:51;0.90;;;0.90;;
15931;SDS011;8065;49.520;11.284;2023-05-10T09:04:19;0.80;;;0.80;;
15931;SDS011;8065;49.520;11.284;2023-05-10T09:06:47;0.80;;;0.80;;
15931;SDS011;8065;49.520;11.284;2023-05-10T09:09:13;0.70;;;0.70;;
15931;SDS011;8065;49.520;11.284;2023-05-10T09:11:42;0.80;;;0.80;;
15931;SDS011;8065;49.520;11.284;2023-05-10T09:14:09;0.80;;;0.80;;
15931;SDS011;8065;49.520;11.284;2023-05-10T09:16:37;0.90;;;0.90;;
15931;SDS011;8065;49.520;11.284;2023-05-10T09:19:03;0.93;;;0.93;;
15931;SDS011;8065;49.520;11.284;2023-05-10T09:21:30;0.97;;;0.70;;
15931;SDS011;8065;49.520;11.284;2023-05-10T09:23:57;0.90;;;0.90;;
15931;SDS011;8065;49.520;11.284;2023-05-10T09:26:29;1.13;;;1.10;;
15931;SDS011;8065;49.520;11.284;2023-05-10T09:28:57;1.63;;;1.10;;
15931;SDS011;8065;49.520;11.284;2023-05-10T09:31:24;1.90;;;1.27;;
15931;SDS011;8065;49.520;11.284;2023-05-10T09:34:09;2.03;;;1.40;;
15931;SDS011;8065;49.520;11.284;2023-05-10T09:36:36;0.90;;;0.90;;
15931;SDS011;8065;49.520;11.284;2023-05-10T09:39:02;1.20;;;1.00;;
15931;SDS011;8065;49.520;11.284;2023-05-10T09:41:29;1.67;;;1.10;;
15931;SDS011;8065;49.520;11.284;2023-05-10T09:43:57;1.37;;;1.00;;
15931;SDS011;8065;49.520;11.284;2023-05-10T09:46:23;1.40;;;1.30;;
15931;SDS011;8065;49.520;11.284;2023-05-10T09:48:51;1.37;;;1.20;;
15931;SDS011;8065;49.520;11.284;2023-05-10T09:51:20;1.00;;;1.00;;
15931;SDS011;8065;49.520;11.284;2023-05-10T09:53:47;1.27;;;1.17;;
15931;SDS011;8065;49.520;11.284;2023-05-10T09:59:05;1.60;;;1.50;;
15931;SDS011;8065;49.520;11.284;2023-05-10T10:01:33;1.17;;;1.17;;
15931;SDS011;8065;49.520;11.284;2023-05-10T10:04:01;1.60;;;1.50;;
15931;SDS011;8065;49.520;11.284;2023-05-10T10:06:29;2.93;;;1.43;;
15931;SDS011;8065;49.520;11.284;2023-05-10T10:09:00;1.80;;;1.40;;
15931;SDS011;8065;49.520;11.284;2023-05-10T10:11:27;1.73;;;1.23;;
15931;SDS011;8065;49.520;11.284;2023-05-10T10:13:54;1.63;;;1.33;;
15931;SDS011;8065;49.520;11.284;2023-05-10T10:16:23;1.40;;;1.30;;
15931;SDS011;8065;49.520;11.284;2023-05-10T10:18:50;2.27;;;1.27;;
15931;SDS011;8065;49.520;11.284;2023-05-10T10:21:18;1.57;;;1.40;;
15931;SDS011;8065;49.520;11.284;2023-05-10T10:23:45;3.90;;;1.43;;
15931;SDS011;8065;49.520;11.284;2023-05-10T10:26:12;2.80;;;1.73;;
15931;SDS011;8065;49.520;11.284;2023-05-10T10:28:40;1.40;;;1.30;;
15931;SDS011;8065;49.520;11.284;2023-05-10T10:31:17;1.70;;;1.60;;
15931;SDS011;8065;49.520;11.284;2023-05-10T10:33:56;1.53;;;1.43;;
15931;SDS011;8065;49.520;11.284;2023-05-10T10:36:26;1.60;;;1.50;;
15931;SDS011;8065;49.520;11.284;2023-05-10T10:38:59;1.47;;;1.37;;
15931;SDS011;8065;49.520;11.284;2023-05-10T10:41:31;1.83;;;1.73;;
15931;SDS011;8065;49.520;11.284;2023-05-10T10:50:03;1.60;;;1.40;;
15931;SDS011;8065;49.520;11.284;2023-05-10T10:52:32;1.60;;;1.50;;
15931;SDS011;8065;49.520;11.284;2023-05-10T10:55:00;1.63;;;1.57;;
15931;SDS011;8065;49.520;11.284;2023-05-10T10:57:31;5.53;;;2.07;;
15931;SDS011;8065;49.520;11.284;2023-05-10T11:03:03;2.13;;;1.90;;
15931;SDS011;8065;49.520;11.284;2023-05-10T11:05:36;2.83;;;2.50;;
15931;SDS011;8065;49.520;11.284;2023-05-10T11:08:08;2.60;;;2.40;;
15931;SDS011;8065;49.520;11.284;2023-05-10T11:10:37;3.00;;;2.10;;
15931;SDS011;8065;49.520;11.284;2023-05-10T11:13:04;2.70;;;1.90;;
15931;SDS011;8065;49.520;11.284;2023-05-10T11:15:32;4.33;;;2.10;;
15931;SDS011;8065;49.520;11.284;2023-05-10T11:18:15;2.63;;;1.93;;
15931;SDS011;8065;49.520;11.284;2023-05-10T11:20:44;2.47;;;2.03;;
15931;SDS011;8065;49.520;11.284;2023-05-10T11:23:16;2.90;;;2.10;;
15931;SDS011;8065;49.520;11.284;2023-05-10T11:25:44;2.13;;;2.03;;
15931;SDS011;8065;49.520;11.284;2023-05-10T11:28:12;2.67;;;2.07;;
15931;SDS011;8065;49.520;11.284;2023-05-10T11:30:39;2.50;;;2.17;;
15931;SDS011;8065;49.520;11.284;2023-05-10T11:33:07;2.00;;;1.90;;
15931;SDS011;8065;49.520;11.284;2023-05-10T11:35:37;2.00;;;1.80;;
15931;SDS011;8065;49.520;11.284;2023-05-10T11:38:06;3.90;;;1.90;;
15931;SDS011;8065;49.520;11.284;2023-05-10T11:40:33;2.50;;;1.73;;
15931;SDS011;8065;49.520;11.284;2023-05-10T11:43:00;1.87;;;1.77;;
15931;SDS011;8065;49.520;11.284;2023-05-10T11:45:27;2.07;;;1.87;;
15931;SDS011;8065;49.520;11.284;2023-05-10T11:47:54;1.80;;;1.70;;
15931;SDS011;8065;49.520;11.284;2023-05-10T11:50:21;2.47;;;1.97;;
15931;SDS011;8065;49.520;11.284;2023-05-10T11:52:50;4.37;;;1.97;;
15931;SDS011;8065;49.520;11.284;2023-05-10T11:55:18;2.10;;;1.90;;
15931;SDS011;8065;49.520;11.284;2023-05-10T11:57:45;2.10;;;2.00;;
15931;SDS011;8065;49.520;11.284;2023-05-10T12:00:12;1.87;;;1.77;;
15931;SDS011;8065;49.520;11.284;2023-05-10T12:02:39;3.07;;;1.60;;
15931;SDS011;8065;49.520;11.284;2023-05-10T12:05:06;1.70;;;1.60;;
15931;SDS011;8065;49.520;11.284;2023-05-10T12:07:33;2.03;;;1.33;;
15931;SDS011;8065;49.520;11.284;2023-05-10T12:10:06;1.87;;;1.40;;
15931;SDS011;8065;49.520;11.284;2023-05-10T12:12:40;1.40;;;1.30;;
15931;SDS011;8065;49.520;11.284;2023-05-10T12:15:11;1.83;;;1.43;;
15931;SDS011;8065;49.520;11.284;2023-05-10T12:17:38;1.40;;;1.30;;
15931;SDS011;8065;49.520;11.284;2023-05-10T12:20:15;1.57;;;1.53;;
15931;SDS011;8065;49.520;11.284;2023-05-10T12:22:46;2.00;;;1.60;;
15931;SDS011;8065;49.520;11.284;2023-05-10T12:25:15;3.53;;;1.60;;
15931;SDS011;8065;49.520;11.284;2023-05-10T12:27:48;1.60;;;1.50;;
15931;SDS011;8065;49.520;11.284;2023-05-10T12:30:20;1.60;;;1.50;;
15931;SDS011;8065;49.520;11.284;2023-05-10T12:32:48;1.93;;;1.70;;
15931;SDS011;8065;49.520;11.284;2023-05-10T12:35:14;1.60;;;1.50;;
15931;SDS011;8065;49.520;11.284;2023-05-10T12:37:42;1.97;;;1.40;;
15931;SDS011;8065;49.520;11.284;2023-05-10T12:40:09;1.50;;;1.40;;
15931;SDS011;8065;49.520;11.284;2023-05-10T12:42:37;1.63;;;1.30;;
15931;SDS011;8065;49.520;11.284;2023-05-10T12:45:07;1.30;;;1.20;;
15931;SDS011;8065;49.520;11.284;2023-05-10T12:47:34;1.93;;;1.10;;
15931;SDS011;8065;49.520;11.284;2023-05-10T12:50:01;5.03;;;1.10;;
15931;SDS011;8065;49.520;11.284;2023-05-10T12:52:28;3.10;;;1.07;;
15931;SDS011;8065;49.520;11.284;2023-05-10T12:54:56;1.00;;;1.00;;
15931;SDS011;8065;49.520;11.284;2023-05-10T12:57:23;1.77;;;1.13;;
15931;SDS011;8065;49.520;11.284;2023-05-10T12:59:49;0.90;;;0.90;;
15931;SDS011;8065;49.520;11.284;2023-05-10T13:02:17;1.13;;;1.03;;
15931;SDS011;8065;49.520;11.284;2023-05-10T13:04:45;1.10;;;1.10;;
15931;SDS011;8065;49.520;11.284;2023-05-10T13:07:12;1.27;;;1.07;;
15931;SDS011;8065;49.520;11.284;2023-05-10T13:09:39;1.73;;;0.90;;
15931;SDS011;8065;49.520;11.284;2023-05-10T13:12:06;1.20;;;1.10;;
15931;SDS011;8065;49.520;11.284;2023-05-10T13:14:32;0.90;;;0.90;;
15931;SDS011;8065;49.520;11.284;2023-05-10T13:16:59;1.10;;;1.10;;
15931;SDS011;8065;49.520;11.284;2023-05-10T13:19:26;2.20;;;0.90;;
15931;SDS011;8065;49.520;11.284;2023-05-10T13:21:53;1.10;;;0.80;;
15931;SDS011;8065;49.520;11.284;2023-05-10T13:24:19;1.73;;;1.00;;
15931;SDS011;8065;49.520;11.284;2023-05-10T13:26:46;1.53;;;1.13;;
15931;SDS011;8065;49.520;11.284;2023-05-10T13:29:13;2.03;;;1.17;;
15931;SDS011;8065;49.520;11.284;2023-05-10T13:31:42;3.00;;;1.20;;
15931;SDS011;8065;49.520;11.284;2023-05-10T13:34:08;1.10;;;1.10;;
15931;SDS011;8065;49.520;11.284;2023-05-10T13:36:36;1.70;;;1.53;;
15931;SDS011;8065;49.520;11.284;2023-05-10T13:39:03;2.10;;;1.30;;
15931;SDS011;8065;49.520;11.284;2023-05-10T13:41:30;1.40;;;1.30;;
15931;SDS011;8065;49.520;11.284;2023-05-10T13:43:56;2.37;;;1.40;;
15931;SDS011;8065;49.520;11.284;2023-05-10T13:46:23;1.27;;;1.20;;
15931;SDS011;8065;49.520;11.284;2023-05-10T13:48:49;1.00;;;1.00;;
15931;SDS011;8065;49.520;11.284;2023-05-10T13:51:16;1.30;;;1.30;;
15931;SDS011;8065;49.520;11.284;2023-05-10T13:53:44;1.40;;;1.27;;
15931;SDS011;8065;49.520;11.284;2023-05-10T13:56:12;1.20;;;1.20;;
15931;SDS011;8065;49.520;11.284;2023-05-10T13:58:39;1.47;;;1.37;;
15931;SDS011;8065;49.520;11.284;2023-05-10T14:01:06;1.40;;;1.30;;
15931;SDS011;8065;49.520;11.284;2023-05-10T14:03:32;1.87;;;1.20;;
15931;SDS011;8065;49.520;11.284;2023-05-10T14:05:59;1.93;;;1.53;;
15931;SDS011;8065;49.520;11.284;2023-05-10T14:08:26;1.07;;;1.03;;
15931;SDS011;8065;49.520;11.284;2023-05-10T14:10:54;4.13;;;1.17;;
15931;SDS011;8065;49.520;11.284;2023-05-10T14:13:21;2.13;;;1.37;;
15931;SDS011;8065;49.520;11.284;2023-05-10T14:15:48;1.30;;;1.20;;
15931;SDS011;8065;49.520;11.284;2023-05-10T14:18:15;1.00;;;0.90;;
15931;SDS011;8065;49.520;11.284;2023-05-10T14:20:41;1.53;;;0.80;;
15931;SDS011;8065;49.520;11.284;2023-05-10T14:23:08;1.73;;;1.10;;
15931;SDS011;8065;49.520;11.284;2023-05-10T14:25:34;0.93;;;0.73;;
15931;SDS011;8065;49.520;11.284;2023-05-10T14:28:04;1.77;;;1.10;;
15931;SDS011;8065;49.520;11.284;2023-05-10T14:30:31;1.63;;;1.13;;
15931;SDS011;8065;49.520;11.284;2023-05-10T14:32:59;1.13;;;1.07;;
15931;SDS011;8065;49.520;11.284;2023-05-10T14:35:26;1.80;;;1.20;;
15931;SDS011;8065;49.520;11.284;2023-05-10T14:37:52;2.27;;;1.30;;
15931;SDS011;8065;49.520;11.284;2023-05-10T14:40:19;1.00;;;1.00;;
15931;SDS011;8065;49.520;11.284;2023-05-10T14:42:46;1.00;;;1.00;;
15931;SDS011;8065;49.520;11.284;2023-05-10T14:45:14;1.27;;;1.00;;
15931;SDS011;8065;49.520;11.284;2023-05-10T14:47:40;1.50;;;1.40;;
15931;SDS011;8065;49.520;11.284;2023-05-10T14:50:07;1.63;;;1.07;;
15931;SDS011;8065;49.520;11.284;2023-05-10T14:52:34;2.27;;;0.90;;
15931;SDS011;8065;49.520;11.284;2023-05-10T14:55:01;0.80;;;0.80;;
15931;SDS011;8065;49.520;11.284;2023-05-10T14:57:28;1.20;;;0.73;;
15931;SDS011;8065;49.520;11.284;2023-05-10T14:59:54;0.80;;;0.80;;
15931;SDS011;8065;49.520;11.284;2023-05-10T15:02:22;1.13;;;0.77;;
15931;SDS011;8065;49.520;11.284;2023-05-10T15:04:49;1.77;;;1.20;;
15931;SDS011;8065;49.520;11.284;2023-05-10T15:07:16;2.00;;;1.40;;
15931;SDS011;8065;49.520;11.284;2023-05-10T15:09:43;0.90;;;0.90;;